Time;durP1;ratioP1;P1;durP2;ratioP2;P2;SDS_P1;SDS_P2;PMS_P1;PMS_P2;Temp;Humidity;BMP_temperature;BMP_pressure;BME280_temperature;BME280_humidity;BME280_pressure;Samples;Min_cycle;Max_cycle;Signal;HPM_P1;HPM_P2
2021/08/15 00:00:49;;;;;;;6.00;4.05;;;;;;;;;;5014033;28;20113;-41
2021/08/15 00:03:14;;;;;;;7.18;4.22;;;;;;;;;;5014034;28;20058;-41
2021/08/15 00:05:40;;;;;;;6.97;4.45;;;;;;;;;;5029104;28;20057;-41
2021/08/15 00:08:07;;;;;;;5.45;4.35;;;;;;;;;;5013957;28;20029;-41
2021/08/15 00:10:33;;;;;;;4.95;4.28;;;;;;;;;;5014095;28;20030;-41
2021/08/15 00:12:58;;;;;;;6.93;4.13;;;;;;;;;;5013870;28;20034;-41
2021/08/15 00:15:23;;;;;;;6.28;4.65;;;;;;;;;;5013699;28;20034;-40
2021/08/15 00:17:49;;;;;;;10.10;4.80;;;;;;;;;;5013731;28;20030;-41
2021/08/15 00:20:14;;;;;;;6.15;4.30;;;;;;;;;;5014009;28;20033;-41
2021/08/15 00:22:41;;;;;;;4.80;3.88;;;;;;;;;;5013547;28;20034;-41
2021/08/15 00:25:07;;;;;;;5.53;4.28;;;;;;;;;;5013591;28;20045;-40
2021/08/15 00:27:32;;;;;;;8.18;4.68;;;;;;;;;;5013538;28;20044;-41
2021/08/15 00:29:58;;;;;;;4.55;3.78;;;;;;;;;;5012277;28;20548;-41
2021/08/15 00:32:23;;;;;;;7.10;3.83;;;;;;;;;;5029047;28;20103;-41
2021/08/15 00:34:48;;;;;;;6.40;3.90;;;;;;;;;;5028538;28;20440;-41
2021/08/15 00:37:14;;;;;;;6.85;4.57;;;;;;;;;;5013415;28;20377;-41
2021/08/15 00:39:39;;;;;;;7.82;4.65;;;;;;;;;;5012020;28;20022;-41
2021/08/15 00:42:05;;;;;;;6.80;4.43;;;;;;;;;;5013384;28;20030;-41
2021/08/15 00:44:30;;;;;;;7.28;4.45;;;;;;;;;;5013438;28;20026;-41
2021/08/15 00:46:56;;;;;;;7.25;4.60;;;;;;;;;;5013320;28;20537;-41
2021/08/15 00:49:22;;;;;;;5.13;3.88;;;;;;;;;;5013556;28;20022;-41
2021/08/15 00:51:47;;;;;;;8.70;4.93;;;;;;;;;;5028263;28;20798;-40
2021/08/15 00:54:12;;;;;;;7.25;4.60;;;;;;;;;;5028245;28;20370;-41
2021/08/15 00:56:38;;;;;;;7.13;3.97;;;;;;;;;;5013009;28;20053;-42
2021/08/15 00:59:05;;;;;;;6.70;4.63;;;;;;;;;;5013058;28;20026;-41
2021/08/15 01:01:32;;;;;;;4.82;3.60;;;;;;;;;;5012968;28;20121;-41
2021/08/15 01:04:02;;;;;;;8.25;4.32;;;;;;;;;;5013311;28;20014;-41
2021/08/15 01:06:28;;;;;;;10.10;4.40;;;;;;;;;;5013773;28;20515;-40
2021/08/15 01:08:53;;;;;;;6.13;4.20;;;;;;;;;;5013314;28;20097;-41
2021/08/15 01:11:18;;;;;;;5.03;3.88;;;;;;;;;;5013537;28;20083;-41
2021/08/15 01:13:43;;;;;;;6.00;4.10;;;;;;;;;;5013085;28;20038;-41
2021/08/15 01:16:09;;;;;;;6.82;4.50;;;;;;;;;;5013526;28;20384;-41
2021/08/15 01:18:35;;;;;;;5.63;4.10;;;;;;;;;;5028340;28;20026;-41
2021/08/15 01:21:13;;;;;;;10.18;4.35;;;;;;;;;;5013097;28;20025;-41
2021/08/15 01:23:40;;;;;;;4.45;4.00;;;;;;;;;;5013298;28;20026;-41
2021/08/15 01:26:05;;;;;;;6.05;4.53;;;;;;;;;;5012588;28;20052;-40
2021/08/15 01:28:31;;;;;;;9.57;5.20;;;;;;;;;;5027877;28;20456;-40
2021/08/15 01:30:56;;;;;;;6.95;4.18;;;;;;;;;;5012639;28;20145;-41
2021/08/15 01:33:26;;;;;;;5.43;4.47;;;;;;;;;;5027253;28;20032;-41
2021/08/15 01:35:52;;;;;;;7.93;4.72;;;;;;;;;;5028004;28;20050;-41
2021/08/15 01:38:18;;;;;;;5.93;4.07;;;;;;;;;;5012630;28;20065;-41
2021/08/15 01:40:43;;;;;;;6.10;4.53;;;;;;;;;;5012495;28;20052;-41
2021/08/15 01:43:08;;;;;;;5.43;4.38;;;;;;;;;;5012486;28;20057;-41
2021/08/15 01:45:34;;;;;;;6.50;4.90;;;;;;;;;;5012429;28;20014;-40
2021/08/15 01:47:59;;;;;;;5.35;4.13;;;;;;;;;;5012480;28;20064;-41
2021/08/15 01:50:24;;;;;;;7.88;4.38;;;;;;;;;;5012738;28;20018;-41
2021/08/15 01:52:50;;;;;;;8.15;4.75;;;;;;;;;;5012465;28;20041;-41
2021/08/15 01:55:15;;;;;;;8.73;5.63;;;;;;;;;;5012553;28;20053;-41
2021/08/15 01:57:40;;;;;;;6.97;4.25;;;;;;;;;;5012582;28;20026;-42
2021/08/15 02:00:06;;;;;;;7.63;4.13;;;;;;;;;;5027615;28;20022;-41
2021/08/15 02:02:43;;;;;;;5.78;4.53;;;;;;;;;;5012103;28;20573;-41
2021/08/15 02:05:19;;;;;;;6.80;4.50;;;;;;;;;;5012333;28;20041;-40
2021/08/15 02:07:45;;;;;;;4.88;4.20;;;;;;;;;;5012429;28;20040;-41
2021/08/15 02:10:11;;;;;;;5.50;4.10;;;;;;;;;;5012114;28;20083;-40
2021/08/15 02:12:36;;;;;;;7.55;4.43;;;;;;;;;;5011330;28;20034;-41
2021/08/15 02:15:02;;;;;;;5.50;3.95;;;;;;;;;;5012073;28;20398;-41
2021/08/15 02:17:27;;;;;;;5.22;4.53;;;;;;;;;;5012224;28;20461;-40
2021/08/15 02:19:52;;;;;;;6.43;4.22;;;;;;;;;;5012142;28;20029;-41
2021/08/15 02:22:18;;;;;;;7.28;5.60;;;;;;;;;;5012370;28;20034;-41
2021/08/15 02:24:43;;;;;;;5.32;4.15;;;;;;;;;;5012018;28;20055;-41
2021/08/15 02:27:09;;;;;;;7.82;4.20;;;;;;;;;;5027291;28;20433;-41
2021/08/15 02:29:35;;;;;;;4.85;4.28;;;;;;;;;;5012050;28;20026;-41
2021/08/15 02:32:00;;;;;;;6.95;4.38;;;;;;;;;;5027358;28;20168;-41
2021/08/15 02:34:27;;;;;;;4.90;4.45;;;;;;;;;;5012071;28;20034;-41
2021/08/15 02:36:53;;;;;;;8.15;4.00;;;;;;;;;;5012182;28;20033;-41
2021/08/15 02:39:18;;;;;;;5.20;4.00;;;;;;;;;;5011992;28;20021;-41
2021/08/15 02:41:43;;;;;;;6.32;3.92;;;;;;;;;;5012219;28;20114;-41
2021/08/15 02:44:09;;;;;;;7.07;4.55;;;;;;;;;;5012146;28;20026;-41
2021/08/15 02:46:34;;;;;;;6.25;3.30;;;;;;;;;;5014697;28;20030;-40
2021/08/15 02:48:59;;;;;;;7.47;3.50;;;;;;;;;;5015456;28;20060;-41
2021/08/15 02:51:24;;;;;;;8.63;4.43;;;;;;;;;;5030686;28;20033;-41
2021/08/15 02:53:51;;;;;;;5.20;4.28;;;;;;;;;;5030414;28;20579;-41
2021/08/15 02:56:16;;;;;;;5.53;3.92;;;;;;;;;;5015400;28;20080;-40
2021/08/15 02:58:42;;;;;;;5.50;3.95;;;;;;;;;;5015362;28;20025;-41
2021/08/15 03:01:07;;;;;;;5.93;4.25;;;;;;;;;;5015276;28;20105;-41
2021/08/15 03:03:32;;;;;;;9.00;4.93;;;;;;;;;;5013837;28;20025;-41
2021/08/15 03:05:58;;;;;;;5.00;4.10;;;;;;;;;;5015061;28;20022;-41
2021/08/15 03:08:23;;;;;;;4.85;4.03;;;;;;;;;;5015484;28;20419;-41
2021/08/15 03:10:48;;;;;;;6.13;4.05;;;;;;;;;;5015089;28;20061;-41
2021/08/15 03:13:14;;;;;;;5.60;4.57;;;;;;;;;;5030164;28;20465;-41
2021/08/15 03:15:40;;;;;;;4.63;4.13;;;;;;;;;;5013660;28;20396;-41
2021/08/15 03:18:05;;;;;;;8.80;4.55;;;;;;;;;;5015212;28;20372;-41
2021/08/15 03:20:31;;;;;;;7.43;4.60;;;;;;;;;;5014439;28;20037;-41
2021/08/15 03:22:56;;;;;;;6.82;4.28;;;;;;;;;;5014854;28;20014;-41
2021/08/15 03:25:21;;;;;;;5.90;4.07;;;;;;;;;;5030010;28;20054;-41
2021/08/15 03:27:47;;;;;;;7.32;3.88;;;;;;;;;;5013474;28;20029;-41
2021/08/15 03:30:12;;;;;;;5.38;3.78;;;;;;;;;;5014634;28;20034;-41
2021/08/15 03:32:38;;;;;;;5.60;3.92;;;;;;;;;;5029898;28;20026;-41
2021/08/15 03:35:03;;;;;;;5.07;3.80;;;;;;;;;;5014457;28;20042;-41
2021/08/15 03:37:28;;;;;;;4.85;4.13;;;;;;;;;;5014822;28;20080;-41
2021/08/15 03:39:54;;;;;;;5.18;4.03;;;;;;;;;;5029750;28;20034;-41
2021/08/15 03:42:19;;;;;;;9.98;4.40;;;;;;;;;;5014691;28;20105;-41
2021/08/15 03:44:44;;;;;;;8.30;5.22;;;;;;;;;;5014362;28;20030;-40
2021/08/15 03:47:10;;;;;;;6.20;4.00;;;;;;;;;;5014450;28;20014;-41
2021/08/15 03:49:35;;;;;;;5.53;4.07;;;;;;;;;;5029545;28;20036;-41
2021/08/15 03:52:00;;;;;;;6.18;3.92;;;;;;;;;;5029656;28;20026;-44
2021/08/15 03:54:26;;;;;;;5.43;4.10;;;;;;;;;;5014435;28;20104;-41
2021/08/15 03:56:52;;;;;;;4.55;3.80;;;;;;;;;;5013724;28;20103;-41
2021/08/15 03:59:18;;;;;;;6.32;4.53;;;;;;;;;;5029542;28;20061;-41
2021/08/15 04:01:43;;;;;;;5.18;4.20;;;;;;;;;;5013967;28;20106;-41
2021/08/15 04:04:08;;;;;;;5.60;4.25;;;;;;;;;;5014373;28;20030;-41
2021/08/15 04:06:34;;;;;;;6.15;4.45;;;;;;;;;;5014008;28;20430;-41
2021/08/15 04:09:01;;;;;;;4.80;4.35;;;;;;;;;;5014260;28;20484;-41
2021/08/15 04:11:27;;;;;;;6.43;3.90;;;;;;;;;;5029210;28;20021;-41
2021/08/15 04:13:52;;;;;;;6.05;4.88;;;;;;;;;;5013719;28;20049;-41
2021/08/15 04:16:17;;;;;;;6.35;4.55;;;;;;;;;;5013858;28;20029;-41
2021/08/15 04:18:43;;;;;;;4.10;3.58;;;;;;;;;;5013763;28;20034;-41
2021/08/15 04:21:09;;;;;;;5.55;3.88;;;;;;;;;;5014083;28;20029;-41
2021/08/15 04:23:34;;;;;;;8.88;4.90;;;;;;;;;;5013807;28;20480;-40
2021/08/15 04:26:00;;;;;;;9.32;3.92;;;;;;;;;;5013554;28;20133;-40
2021/08/15 04:28:25;;;;;;;10.82;4.40;;;;;;;;;;5028889;28;20119;-40
2021/08/15 04:30:51;;;;;;;5.05;4.35;;;;;;;;;;5013403;28;20041;-41
2021/08/15 04:33:18;;;;;;;4.35;3.70;;;;;;;;;;5013460;28;20041;-41
2021/08/15 04:35:44;;;;;;;6.53;4.43;;;;;;;;;;5013323;28;20029;-41
2021/08/15 04:38:09;;;;;;;5.35;4.13;;;;;;;;;;5013454;28;20029;-40
2021/08/15 04:40:34;;;;;;;6.45;4.10;;;;;;;;;;5013629;28;20033;-41
2021/08/15 04:43:00;;;;;;;7.20;4.20;;;;;;;;;;5028556;28;20398;-41
2021/08/15 04:45:25;;;;;;;12.48;4.63;;;;;;;;;;5013604;28;20088;-41
2021/08/15 04:47:50;;;;;;;5.53;4.03;;;;;;;;;;5013242;28;20037;-41
2021/08/15 04:50:16;;;;;;;8.38;3.72;;;;;;;;;;5013408;28;20457;-41
2021/08/15 04:52:41;;;;;;;8.93;4.55;;;;;;;;;;5013024;28;20456;-41
2021/08/15 04:55:07;;;;;;;4.57;4.15;;;;;;;;;;5013059;28;20607;-41
2021/08/15 04:57:32;;;;;;;8.32;4.47;;;;;;;;;;5013009;28;20088;-39
2021/08/15 04:59:57;;;;;;;8.45;4.65;;;;;;;;;;5028252;28;20022;-40
2021/08/15 05:02:23;;;;;;;8.48;4.10;;;;;;;;;;5013174;28;20025;-41
2021/08/15 05:04:48;;;;;;;8.13;4.40;;;;;;;;;;5013186;28;20026;-40
2021/08/15 05:07:13;;;;;;;4.10;3.70;;;;;;;;;;5013097;28;20026;-40
2021/08/15 05:09:39;;;;;;;7.50;4.20;;;;;;;;;;5012685;28;20212;-40
2021/08/15 05:12:04;;;;;;;5.90;4.32;;;;;;;;;;5012942;28;20038;-40
2021/08/15 05:14:29;;;;;;;4.68;4.13;;;;;;;;;;5013019;28;20061;-41
2021/08/15 05:16:55;;;;;;;6.30;4.18;;;;;;;;;;5012830;28;20042;-40
2021/08/15 05:19:20;;;;;;;6.00;4.47;;;;;;;;;;5012810;28;20029;-41
2021/08/15 05:21:45;;;;;;;5.18;4.00;;;;;;;;;;5012672;28;20611;-41
2021/08/15 05:24:11;;;;;;;11.35;4.28;;;;;;;;;;5012577;28;20103;-41
2021/08/15 05:26:36;;;;;;;5.85;4.68;;;;;;;;;;5012948;28;20460;-40
2021/08/15 05:29:02;;;;;;;5.88;4.20;;;;;;;;;;5012675;28;20034;-41
2021/08/15 05:31:27;;;;;;;5.40;3.90;;;;;;;;;;5027835;28;20120;-40
2021/08/15 05:33:52;;;;;;;6.78;4.38;;;;;;;;;;5012437;28;20037;-41
2021/08/15 05:36:18;;;;;;;6.05;4.15;;;;;;;;;;5012579;28;20487;-40
2021/08/15 05:38:43;;;;;;;6.18;4.30;;;;;;;;;;5027741;28;20481;-40
2021/08/15 05:41:08;;;;;;;7.82;4.53;;;;;;;;;;5012593;28;20032;-41
2021/08/15 05:43:34;;;;;;;5.85;4.55;;;;;;;;;;5027785;28;20117;-41
2021/08/15 05:45:59;;;;;;;5.60;3.88;;;;;;;;;;5012809;28;20050;-41
2021/08/15 05:48:24;;;;;;;6.90;4.07;;;;;;;;;;5011240;28;20029;-40
2021/08/15 05:50:50;;;;;;;5.05;3.78;;;;;;;;;;5011125;28;20077;-41
2021/08/15 05:53:15;;;;;;;4.55;4.15;;;;;;;;;;5012416;28;20022;-41
2021/08/15 05:55:40;;;;;;;5.50;4.32;;;;;;;;;;5012271;28;20041;-41
2021/08/15 05:58:06;;;;;;;4.60;3.92;;;;;;;;;;5012468;28;20025;-41
2021/08/15 06:00:31;;;;;;;5.57;3.80;;;;;;;;;;5027738;28;20033;-41
2021/08/15 06:02:56;;;;;;;6.20;3.58;;;;;;;;;;5027418;28;20060;-41
2021/08/15 06:05:22;;;;;;;5.82;4.22;;;;;;;;;;5012675;28;20034;-41
2021/08/15 06:07:47;;;;;;;4.53;3.83;;;;;;;;;;5012159;28;20018;-41
2021/08/15 06:10:13;;;;;;;6.55;4.35;;;;;;;;;;5012340;28;20033;-41
2021/08/15 06:12:39;;;;;;;9.27;4.90;;;;;;;;;;5027464;28;20025;-41
2021/08/15 06:15:06;;;;;;;14.57;4.55;;;;;;;;;;5012214;28;20437;-41
2021/08/15 06:17:31;;;;;;;4.45;3.65;;;;;;;;;;5012505;28;20040;-41
2021/08/15 06:19:56;;;;;;;6.75;4.18;;;;;;;;;;5014125;28;20473;-41
2021/08/15 06:22:22;;;;;;;7.57;4.20;;;;;;;;;;5016044;28;20491;-41
2021/08/15 06:24:47;;;;;;;4.65;3.58;;;;;;;;;;5015795;28;20060;-41
2021/08/15 06:27:12;;;;;;;4.00;3.53;;;;;;;;;;5015939;28;20034;-41
2021/08/15 06:29:38;;;;;;;8.30;4.35;;;;;;;;;;5015823;28;20034;-42
2021/08/15 06:32:03;;;;;;;7.85;4.07;;;;;;;;;;5015810;28;20072;-41
2021/08/15 06:34:29;;;;;;;4.93;4.43;;;;;;;;;;5015888;28;20077;-41
2021/08/15 06:36:54;;;;;;;4.65;3.63;;;;;;;;;;5015956;28;20025;-41
2021/08/15 06:39:19;;;;;;;9.20;3.90;;;;;;;;;;5015849;28;20033;-41
2021/08/15 06:41:45;;;;;;;5.38;4.10;;;;;;;;;;5015869;28;20457;-42
2021/08/15 06:44:10;;;;;;;7.13;4.03;;;;;;;;;;5015894;28;20716;-42
2021/08/15 06:46:35;;;;;;;7.10;4.30;;;;;;;;;;5015718;28;20029;-41
2021/08/15 06:49:01;;;;;;;5.10;4.10;;;;;;;;;;5015832;28;20045;-41
2021/08/15 06:51:26;;;;;;;6.45;3.60;;;;;;;;;;5015820;28;20014;-41
2021/08/15 06:53:51;;;;;;;6.63;4.30;;;;;;;;;;5015144;28;20468;-41
2021/08/15 06:56:17;;;;;;;7.50;3.50;;;;;;;;;;5015458;28;20057;-41
2021/08/15 06:58:42;;;;;;;5.18;4.15;;;;;;;;;;5015539;28;20404;-41
2021/08/15 07:01:08;;;;;;;5.18;3.85;;;;;;;;;;5015326;28;20428;-41
2021/08/15 07:03:33;;;;;;;6.82;3.92;;;;;;;;;;5015215;28;20040;-41
2021/08/15 07:05:59;;;;;;;6.30;3.97;;;;;;;;;;5015447;28;20028;-41
2021/08/15 07:08:24;;;;;;;5.13;3.65;;;;;;;;;;5014178;28;20036;-41
2021/08/15 07:10:49;;;;;;;11.07;3.97;;;;;;;;;;5015372;28;20024;-41
2021/08/15 07:13:22;;;;;;;5.63;3.88;;;;;;;;;;5015370;28;20030;-41
2021/08/15 07:15:47;;;;;;;4.38;3.00;;;;;;;;;;5030212;28;20041;-41
2021/08/15 07:18:13;;;;;;;5.65;4.55;;;;;;;;;;5014938;28;20029;-41
2021/08/15 07:20:38;;;;;;;6.15;4.15;;;;;;;;;;5030177;28;20034;-42
2021/08/15 07:23:04;;;;;;;5.30;3.83;;;;;;;;;;5014793;28;20018;-41
2021/08/15 07:25:29;;;;;;;9.63;3.83;;;;;;;;;;5030032;28;20100;-41
2021/08/15 07:27:55;;;;;;;7.40;4.32;;;;;;;;;;5030009;28;20163;-41
2021/08/15 07:30:21;;;;;;;5.63;3.47;;;;;;;;;;5014648;28;20034;-41
2021/08/15 07:32:57;;;;;;;5.65;4.00;;;;;;;;;;5014023;28;20076;-41
2021/08/15 07:35:23;;;;;;;5.55;3.33;;;;;;;;;;5014450;28;20077;-41
2021/08/15 07:37:48;;;;;;;6.70;4.10;;;;;;;;;;5014566;28;20018;-41
2021/08/15 07:40:14;;;;;;;4.68;3.30;;;;;;;;;;5029756;28;20026;-41
2021/08/15 07:42:40;;;;;;;7.45;3.92;;;;;;;;;;5014588;28;20029;-41
2021/08/15 07:45:05;;;;;;;6.30;3.90;;;;;;;;;;5014544;28;20030;-43
2021/08/15 07:47:31;;;;;;;5.18;3.70;;;;;;;;;;5014425;28;20060;-41
2021/08/15 07:49:56;;;;;;;6.38;3.75;;;;;;;;;;5014641;28;20057;-41
2021/08/15 07:52:21;;;;;;;4.57;3.65;;;;;;;;;;5029520;28;20018;-41
2021/08/15 07:54:47;;;;;;;4.75;4.07;;;;;;;;;;5014337;28;20034;-41
2021/08/15 07:57:12;;;;;;;10.10;4.22;;;;;;;;;;5014216;28;20020;-41
2021/08/15 07:59:37;;;;;;;7.75;4.25;;;;;;;;;;5014170;28;20037;-42
2021/08/15 08:02:03;;;;;;;3.80;3.40;;;;;;;;;;5014125;28;20373;-41
2021/08/15 08:04:28;;;;;;;7.30;4.28;;;;;;;;;;5014312;28;20025;-41
2021/08/15 08:06:53;;;;;;;6.95;4.72;;;;;;;;;;5013902;28;20021;-41
2021/08/15 08:09:19;;;;;;;5.50;4.38;;;;;;;;;;5014015;28;20041;-41
2021/08/15 08:11:44;;;;;;;5.28;3.95;;;;;;;;;;5029403;28;20018;-41
2021/08/15 08:14:09;;;;;;;6.40;3.95;;;;;;;;;;5014089;28;20508;-42
2021/08/15 08:16:35;;;;;;;6.45;4.13;;;;;;;;;;5013866;28;20105;-41
2021/08/15 08:19:00;;;;;;;6.18;4.55;;;;;;;;;;5013778;28;20029;-41
2021/08/15 08:21:26;;;;;;;8.70;4.22;;;;;;;;;;5014144;28;20519;-41
2021/08/15 08:23:51;;;;;;;5.57;3.60;;;;;;;;;;5013526;28;20026;-42
2021/08/15 08:26:17;;;;;;;7.50;3.95;;;;;;;;;;5013668;28;20402;-41
2021/08/15 08:28:42;;;;;;;3.60;3.28;;;;;;;;;;5013896;28;20025;-41
2021/08/15 08:31:07;;;;;;;5.60;3.35;;;;;;;;;;5028901;28;20445;-41
2021/08/15 08:33:33;;;;;;;7.80;3.92;;;;;;;;;;5013704;28;20038;-41
2021/08/15 08:35:58;;;;;;;5.65;3.92;;;;;;;;;;5013456;28;20489;-41
2021/08/15 08:38:23;;;;;;;5.47;4.32;;;;;;;;;;5013512;28;20473;-41
2021/08/15 08:40:49;;;;;;;5.75;3.97;;;;;;;;;;5013394;28;20037;-41
2021/08/15 08:43:18;;;;;;;4.93;4.10;;;;;;;;;;5012437;28;20385;-41
2021/08/15 08:45:46;;;;;;;5.90;3.83;;;;;;;;;;5028618;28;20062;-41
2021/08/15 08:48:12;;;;;;;5.78;3.50;;;;;;;;;;5028469;28;20128;-41
2021/08/15 08:50:37;;;;;;;5.53;3.78;;;;;;;;;;5013222;28;20071;-41
2021/08/15 08:53:03;;;;;;;5.82;4.50;;;;;;;;;;5013517;28;20100;-41
2021/08/15 08:55:28;;;;;;;5.55;4.25;;;;;;;;;;5012918;28;20362;-41
2021/08/15 08:57:54;;;;;;;4.97;4.32;;;;;;;;;;5013256;28;20030;-41
2021/08/15 09:00:19;;;;;;;4.60;4.20;;;;;;;;;;5013489;28;20408;-41
2021/08/15 09:02:44;;;;;;;6.03;4.47;;;;;;;;;;5012870;28;20034;-41
2021/08/15 09:05:10;;;;;;;6.60;4.43;;;;;;;;;;5028145;28;20072;-41
2021/08/15 09:07:38;;;;;;;7.55;4.68;;;;;;;;;;5013186;28;20038;-41
2021/08/15 09:10:04;;;;;;;6.15;4.00;;;;;;;;;;5028057;28;20104;-41
2021/08/15 09:12:36;;;;;;;6.13;4.55;;;;;;;;;;5012962;28;20112;-41
2021/08/15 09:15:08;;;;;;;5.30;3.90;;;;;;;;;;5012707;28;20497;-41
2021/08/15 09:17:34;;;;;;;7.38;4.22;;;;;;;;;;5028148;28;20044;-41
2021/08/15 09:20:00;;;;;;;5.18;4.32;;;;;;;;;;5012883;28;20025;-41
2021/08/15 09:22:27;;;;;;;7.07;3.83;;;;;;;;;;5013046;28;20040;-40
2021/08/15 09:25:00;;;;;;;7.53;4.57;;;;;;;;;;5012684;28;20038;-41
2021/08/15 09:27:25;;;;;;;5.90;4.70;;;;;;;;;;5012773;28;20092;-41
2021/08/15 09:30:09;;;;;;;7.43;4.72;;;;;;;;;;5011345;28;20030;-41
2021/08/15 09:32:36;;;;;;;7.47;4.72;;;;;;;;;;5012875;28;20034;-41
2021/08/15 09:35:02;;;;;;;8.70;4.70;;;;;;;;;;5012842;28;20030;-41
2021/08/15 09:37:31;;;;;;;7.70;4.93;;;;;;;;;;5012550;28;20022;-41
2021/08/15 09:39:56;;;;;;;8.30;4.50;;;;;;;;;;5012560;28;20025;-41
2021/08/15 09:42:40;;;;;;;9.30;4.53;;;;;;;;;;5012460;28;20030;-41
2021/08/15 09:45:06;;;;;;;9.05;4.53;;;;;;;;;;5012551;28;20037;-41
2021/08/15 09:47:31;;;;;;;6.68;4.72;;;;;;;;;;5012479;28;20018;-41
2021/08/15 09:49:56;;;;;;;5.45;4.57;;;;;;;;;;5012430;28;20034;-42
2021/08/15 09:52:36;;;;;;;8.73;5.22;;;;;;;;;;5012381;28;20079;-41
2021/08/15 09:55:02;;;;;;;7.15;5.30;;;;;;;;;;5029534;28;20099;-40
2021/08/15 09:57:29;;;;;;;6.55;5.35;;;;;;;;;;5016566;28;20113;-41
2021/08/15 09:59:54;;;;;;;12.85;5.28;;;;;;;;;;5016319;28;20037;-41
2021/08/15 10:02:19;;;;;;;7.95;4.22;;;;;;;;;;5015177;28;20385;-41
2021/08/15 10:04:45;;;;;;;8.73;5.70;;;;;;;;;;5016219;28;20495;-41
2021/08/15 10:07:10;;;;;;;11.75;5.82;;;;;;;;;;5016249;28;20184;-41
2021/08/15 10:09:36;;;;;;;9.10;5.53;;;;;;;;;;5016296;28;20034;-42
2021/08/15 10:12:01;;;;;;;6.40;5.47;;;;;;;;;;5016103;28;20022;-41
2021/08/15 10:14:27;;;;;;;7.00;5.78;;;;;;;;;;5016175;28;20096;-41
2021/08/15 10:16:54;;;;;;;7.63;6.75;;;;;;;;;;5016083;28;20101;-41
2021/08/15 10:19:26;;;;;;;8.18;5.93;;;;;;;;;;5031590;28;20049;-41
2021/08/15 10:21:52;;;;;;;7.00;5.47;;;;;;;;;;5016098;28;20032;-41
2021/08/15 10:24:17;;;;;;;6.35;5.45;;;;;;;;;;5015786;28;20681;-41
2021/08/15 10:26:45;;;;;;;7.97;5.78;;;;;;;;;;5015906;28;20026;-42
2021/08/15 10:29:29;;;;;;;6.13;5.03;;;;;;;;;;5031229;28;20062;-41
2021/08/15 10:32:27;;;;;;;10.77;6.07;;;;;;;;;;5015804;28;20033;-41
2021/08/15 10:34:54;;;;;;;6.43;5.63;;;;;;;;;;5003585;28;20499;-41
2021/08/15 10:37:25;;;;;;;20.05;6.38;;;;;;;;;;5016124;28;20103;-41
2021/08/15 10:39:52;;;;;;;6.88;5.18;;;;;;;;;;5015675;28;20030;-42
2021/08/15 10:42:36;;;;;;;10.05;5.57;;;;;;;;;;5015863;28;20109;-41
2021/08/15 10:45:03;;;;;;;12.10;5.70;;;;;;;;;;5015718;28;20476;-41
2021/08/15 10:47:28;;;;;;;6.85;5.70;;;;;;;;;;5015762;28;20025;-40
2021/08/15 10:49:55;;;;;;;8.50;5.28;;;;;;;;;;5015434;28;20036;-42
2021/08/15 10:52:31;;;;;;;9.90;5.55;;;;;;;;;;5031079;28;20037;-41
2021/08/15 10:55:00;;;;;;;9.50;5.70;;;;;;;;;;5015202;28;20484;-41
2021/08/15 10:57:42;;;;;;;10.07;6.78;;;;;;;;;;5015496;28;20014;-42
2021/08/15 11:00:26;;;;;;;12.95;5.30;;;;;;;;;;5030611;28;20555;-42
2021/08/15 11:02:51;;;;;;;12.52;6.25;;;;;;;;;;5015066;28;20030;-41
2021/08/15 11:05:33;;;;;;;8.38;6.38;;;;;;;;;;5014952;28;20021;-41
2021/08/15 11:07:58;;;;;;;9.20;5.30;;;;;;;;;;5014652;28;20025;-41
2021/08/15 11:10:24;;;;;;;10.98;5.85;;;;;;;;;;5015334;28;20080;-41
2021/08/15 11:13:08;;;;;;;8.05;6.60;;;;;;;;;;5014974;28;20473;-41
2021/08/15 11:15:33;;;;;;;13.15;6.80;;;;;;;;;;5015228;28;20037;-41
2021/08/15 11:18:08;;;;;;;7.53;6.32;;;;;;;;;;5014795;28;20018;-42
2021/08/15 11:20:36;;;;;;;5.60;5.05;;;;;;;;;;5014960;28;20044;-41
2021/08/15 11:23:20;;;;;;;7.57;5.38;;;;;;;;;;5014677;28;20419;-41
2021/08/15 11:25:46;;;;;;;9.88;5.53;;;;;;;;;;5014745;28;20046;-41
2021/08/15 11:28:12;;;;;;;12.48;5.47;;;;;;;;;;5030040;28;20037;-41
2021/08/15 11:30:38;;;;;;;11.18;6.10;;;;;;;;;;5013396;28;20057;-41
2021/08/15 11:33:07;;;;;;;10.50;6.00;;;;;;;;;;5014705;28;20049;-41
2021/08/15 11:35:43;;;;;;;9.48;5.93;;;;;;;;;;5029836;28;20168;-41
2021/08/15 11:38:09;;;;;;;8.30;4.72;;;;;;;;;;5014670;28;20018;-41
2021/08/15 11:40:41;;;;;;;11.88;5.38;;;;;;;;;;5014599;28;20517;-41
2021/08/15 11:43:10;;;;;;;7.35;5.97;;;;;;;;;;5014238;28;20033;-41
2021/08/15 11:45:37;;;;;;;11.13;6.13;;;;;;;;;;5014392;28;20026;-41
2021/08/15 11:48:09;;;;;;;7.50;6.47;;;;;;;;;;5014493;28;20547;-41
2021/08/15 11:50:35;;;;;;;9.05;6.53;;;;;;;;;;5014655;28;20084;-41
2021/08/15 11:53:01;;;;;;;7.82;5.93;;;;;;;;;;5014136;28;20018;-41
2021/08/15 11:55:27;;;;;;;10.20;6.72;;;;;;;;;;5014315;28;20046;-41
2021/08/15 11:57:54;;;;;;;7.00;6.28;;;;;;;;;;5014166;28;20021;-41
2021/08/15 12:00:28;;;;;;;6.85;5.38;;;;;;;;;;5014226;28;20113;-41
2021/08/15 12:02:59;;;;;;;8.90;5.38;;;;;;;;;;5014233;28;20125;-41
2021/08/15 12:05:25;;;;;;;7.25;5.68;;;;;;;;;;5014407;28;20030;-41
2021/08/15 12:07:50;;;;;;;11.32;5.70;;;;;;;;;;5014146;28;20153;-42
2021/08/15 12:10:26;;;;;;;9.27;6.82;;;;;;;;;;5014317;28;20057;-41
2021/08/15 12:13:11;;;;;;;14.05;7.35;;;;;;;;;;5013854;28;20050;-41
2021/08/15 12:15:37;;;;;;;6.07;5.47;;;;;;;;;;5029048;28;20046;-41
2021/08/15 12:18:02;;;;;;;11.25;6.60;;;;;;;;;;5013567;28;20029;-41
2021/08/15 12:20:27;;;;;;;8.00;6.07;;;;;;;;;;5013813;28;20033;-41
2021/08/15 12:22:53;;;;;;;9.05;7.40;;;;;;;;;;5013691;28;20052;-41
2021/08/15 12:25:23;;;;;;;6.40;4.88;;;;;;;;;;5013632;28;20046;-41
2021/08/15 12:27:48;;;;;;;8.18;6.20;;;;;;;;;;5013618;28;20068;-41
2021/08/15 12:30:30;;;;;;;9.85;5.78;;;;;;;;;;5013661;28;20026;-42
2021/08/15 12:32:55;;;;;;;7.63;5.00;;;;;;;;;;5013794;28;20088;-42
2021/08/15 12:35:26;;;;;;;7.60;5.75;;;;;;;;;;5013425;28;20515;-40
2021/08/15 12:37:53;;;;;;;7.85;6.38;;;;;;;;;;5013781;28;20108;-41
2021/08/15 12:40:19;;;;;;;9.18;6.65;;;;;;;;;;5013561;28;20025;-41
2021/08/15 12:42:54;;;;;;;8.45;5.63;;;;;;;;;;5013224;28;20080;-41
2021/08/15 12:45:42;;;;;;;9.60;5.07;;;;;;;;;;5013358;28;20504;-41
2021/08/15 12:48:08;;;;;;;6.60;5.72;;;;;;;;;;5013675;28;20049;-41
2021/08/15 12:50:34;;;;;;;7.10;5.28;;;;;;;;;;5013561;28;20025;-41
2021/08/15 12:53:00;;;;;;;5.53;5.00;;;;;;;;;;5013248;28;20465;-42
2021/08/15 12:55:26;;;;;;;7.93;5.78;;;;;;;;;;5028438;28;20030;-41
2021/08/15 12:57:51;;;;;;;8.70;5.68;;;;;;;;;;5013098;28;20054;-41
2021/08/15 13:00:17;;;;;;;6.95;5.60;;;;;;;;;;5013230;28;20026;-41
2021/08/15 13:02:46;;;;;;;7.53;5.75;;;;;;;;;;5012916;28;20469;-41
2021/08/15 13:05:12;;;;;;;8.07;6.13;;;;;;;;;;5013061;28;20466;-41
2021/08/15 13:07:37;;;;;;;8.40;5.75;;;;;;;;;;5028280;28;20029;-41
2021/08/15 13:10:03;;;;;;;11.82;6.90;;;;;;;;;;5012848;28;20022;-41
2021/08/15 13:12:29;;;;;;;9.77;5.85;;;;;;;;;;5028298;28;20030;-41
2021/08/15 13:14:54;;;;;;;12.68;6.05;;;;;;;;;;5013048;28;20030;-41
2021/08/15 13:17:20;;;;;;;12.65;6.20;;;;;;;;;;5013140;28;20022;-41
2021/08/15 13:19:46;;;;;;;7.25;6.38;;;;;;;;;;5012787;28;20029;-41
2021/08/15 13:22:11;;;;;;;9.68;6.05;;;;;;;;;;5013042;28;20033;-41
2021/08/15 13:24:38;;;;;;;9.45;6.38;;;;;;;;;;5012573;28;20065;-41
2021/08/15 13:27:04;;;;;;;9.35;6.60;;;;;;;;;;5012985;28;20029;-41
2021/08/15 13:29:30;;;;;;;8.05;6.22;;;;;;;;;;5012219;28;20615;-41
2021/08/15 13:31:56;;;;;;;10.35;5.50;;;;;;;;;;5012523;28;20041;-41
2021/08/15 13:34:21;;;;;;;8.65;6.95;;;;;;;;;;5012852;28;20022;-41
2021/08/15 13:36:46;;;;;;;10.80;6.75;;;;;;;;;;5028114;28;20053;-41
2021/08/15 13:39:12;;;;;;;8.18;6.15;;;;;;;;;;5012647;28;20030;-41
2021/08/15 13:41:37;;;;;;;12.25;5.88;;;;;;;;;;5011298;28;20058;-41
2021/08/15 13:44:03;;;;;;;6.10;5.30;;;;;;;;;;5012484;28;20018;-41
2021/08/15 13:46:28;;;;;;;7.15;5.35;;;;;;;;;;5012709;28;20109;-41
2021/08/15 13:48:54;;;;;;;7.13;5.82;;;;;;;;;;5012484;28;20461;-41
2021/08/15 13:51:19;;;;;;;10.88;6.05;;;;;;;;;;5028058;28;20121;-41
2021/08/15 13:53:44;;;;;;;6.40;5.40;;;;;;;;;;5012459;28;20036;-41
2021/08/15 13:56:10;;;;;;;8.27;7.20;;;;;;;;;;5012730;28;20127;-41
2021/08/15 13:58:36;;;;;;;7.65;6.85;;;;;;;;;;5012444;28;20400;-41
2021/08/15 14:01:01;;;;;;;7.10;6.40;;;;;;;;;;5012247;28;20022;-42
2021/08/15 14:03:26;;;;;;;12.02;6.38;;;;;;;;;;5012672;28;20018;-41
2021/08/15 14:05:52;;;;;;;11.45;7.70;;;;;;;;;;5012504;28;20388;-41
2021/08/15 14:08:17;;;;;;;8.02;6.70;;;;;;;;;;5012019;28;20017;-41
2021/08/15 14:10:43;;;;;;;11.43;6.97;;;;;;;;;;5012513;28;20049;-41
2021/08/15 14:13:09;;;;;;;12.90;6.65;;;;;;;;;;5012580;28;20014;-41
2021/08/15 14:15:34;;;;;;;7.47;6.22;;;;;;;;;;5012262;28;20049;-41
2021/08/15 14:18:00;;;;;;;7.53;6.45;;;;;;;;;;5012467;28;20457;-41
2021/08/15 14:20:26;;;;;;;9.18;5.60;;;;;;;;;;5012534;28;20380;-41
2021/08/15 14:22:51;;;;;;;8.98;6.03;;;;;;;;;;5012145;28;20025;-41
2021/08/15 14:25:16;;;;;;;8.35;5.75;;;;;;;;;;5012079;28;20397;-41
2021/08/15 14:27:42;;;;;;;8.80;6.05;;;;;;;;;;5012179;28;20439;-41
2021/08/15 14:30:08;;;;;;;7.60;6.72;;;;;;;;;;5012409;28;20529;-41
2021/08/15 14:32:34;;;;;;;7.63;5.70;;;;;;;;;;5012042;28;20072;-41
2021/08/15 14:34:59;;;;;;;10.30;5.78;;;;;;;;;;5011990;28;20077;-42
2021/08/15 14:37:24;;;;;;;5.70;5.03;;;;;;;;;;5027270;28;20080;-41